Terminal Aerodrome Forecast
Issued by NWS

Home | Current Version | Previous Version | Text Only | Print | Product List | Glossary On
Versions: 1 2 3 4 5 6 7 8 9 10 11 12 13 14 15 16 17 18 19 20 21 22 23 24 25 26 27 28 29 30 31 32 33 34 35 36
423
FTUS41 KALY 182020 AAA
TAFPSF
TAF AMD
KPSF 182020Z 1820/1918 00000KT P6SM SCT010 OVC040
      TEMPO 1820/1823 BKN010
     FM182300 24005KT P6SM VCSH OVC009
     FM191000 22006KT P6SM OVC010
     FM191400 23009KT P6SM BKN025=

USA.gov is the U.S. government's official web portal to all federal, state and local government web resources and services.